sensor_id;sensor_type;location;lat;lon;timestamp;pressure;altitude;pressure_sealevel;temperature;humidity
51617;BME280;37697;52.588;13.394;2023-06-22T00:04:55;101424.48;;;18.29;78.48
51617;BME280;37697;52.588;13.394;2023-06-22T00:10:20;101421.69;;;18.20;78.87
51617;BME280;37697;52.588;13.394;2023-06-22T00:15:46;101428.98;;;18.18;79.10
51617;BME280;37697;52.588;13.394;2023-06-22T00:21:12;101434.09;;;18.12;79.21
51617;BME280;37697;52.588;13.394;2023-06-22T00:26:38;101441.45;;;18.06;79.56
51617;BME280;37697;52.588;13.394;2023-06-22T00:31:50;101445.35;;;18.02;79.68
51617;BME280;37697;52.588;13.394;2023-06-22T00:37:16;101444.45;;;17.98;79.75
51617;BME280;37697;52.588;13.394;2023-06-22T00:42:41;101448.65;;;17.93;79.84
51617;BME280;37697;52.588;13.394;2023-06-22T00:48:07;101451.10;;;17.87;79.81
51617;BME280;37697;52.588;13.394;2023-06-22T00:53:34;101453.13;;;17.81;80.06
51617;BME280;37697;52.588;13.394;2023-06-22T00:58:59;101452.50;;;17.77;80.20
51617;BME280;37697;52.588;13.394;2023-06-22T01:04:35;101451.45;;;17.71;80.18
51617;BME280;37697;52.588;13.394;2023-06-22T01:10:06;101454.06;;;17.61;80.47
51617;BME280;37697;52.588;13.394;2023-06-22T01:15:39;101460.84;;;17.56;80.77
51617;BME280;37697;52.588;13.394;2023-06-22T01:20:58;101465.02;;;17.51;80.88
51617;BME280;37697;52.588;13.394;2023-06-22T01:26:37;101467.17;;;17.45;80.91
51617;BME280;37697;52.588;13.394;2023-06-22T01:32:07;101456.96;;;17.39;81.07
51617;BME280;37697;52.588;13.394;2023-06-22T01:37:35;101463.21;;;17.33;81.23
51617;BME280;37697;52.588;13.394;2023-06-22T01:43:03;101465.45;;;17.27;81.42
51617;BME280;37697;52.588;13.394;2023-06-22T01:48:30;101477.24;;;17.22;81.53
51617;BME280;37697;52.588;13.394;2023-06-22T01:53:56;101482.52;;;17.18;81.74
51617;BME280;37697;52.588;13.394;2023-06-22T01:59:27;101482.48;;;17.11;81.82
51617;BME280;37697;52.588;13.394;2023-06-22T02:04:58;101480.79;;;17.05;82.05
51617;BME280;37697;52.588;13.394;2023-06-22T02:10:25;101481.52;;;17.00;82.27
51617;BME280;37697;52.588;13.394;2023-06-22T02:15:52;101483.09;;;16.96;82.55
51617;BME280;37697;52.588;13.394;2023-06-22T02:21:19;101487.31;;;16.90;82.69
51617;BME280;37697;52.588;13.394;2023-06-22T02:26:45;101490.17;;;16.83;82.92
51617;BME280;37697;52.588;13.394;2023-06-22T02:32:11;101493.15;;;16.80;83.29
51617;BME280;37697;52.588;13.394;2023-06-22T02:37:38;101499.62;;;16.79;83.50
51617;BME280;37697;52.588;13.394;2023-06-22T02:43:04;101507.11;;;16.80;83.83
51617;BME280;37697;52.588;13.394;2023-06-22T02:48:29;101504.26;;;16.80;84.02
51617;BME280;37697;52.588;13.394;2023-06-22T02:53:55;101507.37;;;16.80;84.38
51617;BME280;37697;52.588;13.394;2023-06-22T02:59:21;101509.89;;;16.84;84.80
51617;BME280;37697;52.588;13.394;2023-06-22T03:04:47;101508.45;;;16.88;85.08
51617;BME280;37697;52.588;13.394;2023-06-22T03:10:14;101502.97;;;16.91;85.46
51617;BME280;37697;52.588;13.394;2023-06-22T03:15:40;101511.80;;;16.91;85.63
51617;BME280;37697;52.588;13.394;2023-06-22T03:21:06;101505.17;;;16.93;85.81
51617;BME280;37697;52.588;13.394;2023-06-22T03:26:32;101505.25;;;16.94;85.94
51617;BME280;37697;52.588;13.394;2023-06-22T03:31:57;101507.27;;;16.98;86.42
51617;BME280;37697;52.588;13.394;2023-06-22T03:37:23;101497.81;;;17.02;86.65
51617;BME280;37697;52.588;13.394;2023-06-22T03:42:49;101503.24;;;17.06;86.74
51617;BME280;37697;52.588;13.394;2023-06-22T03:48:15;101502.45;;;17.12;86.91
51617;BME280;37697;52.588;13.394;2023-06-22T03:53:41;101493.95;;;17.19;87.25
51617;BME280;37697;52.588;13.394;2023-06-22T03:59:06;101498.63;;;17.26;87.28
51617;BME280;37697;52.588;13.394;2023-06-22T04:04:32;101487.94;;;17.33;87.49
51617;BME280;37697;52.588;13.394;2023-06-22T04:09:58;101489.61;;;17.41;87.72
51617;BME280;37697;52.588;13.394;2023-06-22T04:15:24;101499.38;;;17.51;87.74
51617;BME280;37697;52.588;13.394;2023-06-22T04:20:50;101500.02;;;17.60;87.74
51617;BME280;37697;52.588;13.394;2023-06-22T04:26:16;101502.49;;;17.72;87.66
51617;BME280;37697;52.588;13.394;2023-06-22T04:31:42;101511.50;;;17.83;87.66
51617;BME280;37697;52.588;13.394;2023-06-22T04:37:07;101517.04;;;18.09;86.84
51617;BME280;37697;52.588;13.394;2023-06-22T04:42:35;101523.10;;;18.39;86.16
51617;BME280;37697;52.588;13.394;2023-06-22T04:48:00;101523.78;;;18.50;86.13
51617;BME280;37697;52.588;13.394;2023-06-22T04:53:26;101525.02;;;18.83;85.13
51617;BME280;37697;52.588;13.394;2023-06-22T04:58:52;101529.27;;;19.71;82.69
51617;BME280;37697;52.588;13.394;2023-06-22T05:04:18;101532.95;;;20.09;82.07
51617;BME280;37697;52.588;13.394;2023-06-22T05:09:46;101531.55;;;20.33;81.84
51617;BME280;37697;52.588;13.394;2023-06-22T05:15:12;101529.89;;;20.62;80.17
51617;BME280;37697;52.588;13.394;2023-06-22T05:20:38;101528.28;;;21.13;78.87
51617;BME280;37697;52.588;13.394;2023-06-22T05:26:03;101527.39;;;21.52;77.90
51617;BME280;37697;52.588;13.394;2023-06-22T05:31:30;101533.38;;;21.57;77.01
51617;BME280;37697;52.588;13.394;2023-06-22T05:36:55;101537.18;;;21.65;76.11
51617;BME280;37697;52.588;13.394;2023-06-22T05:42:21;101530.96;;;21.72;74.23
51617;BME280;37697;52.588;13.394;2023-06-22T05:47:47;101538.15;;;21.96;72.92
51617;BME280;37697;52.588;13.394;2023-06-22T05:53:13;101541.16;;;22.47;71.31
51617;BME280;37697;52.588;13.394;2023-06-22T05:58:39;101545.01;;;22.76;69.45
51617;BME280;37697;52.588;13.394;2023-06-22T06:04:05;101553.46;;;22.92;68.13
51617;BME280;37697;52.588;13.394;2023-06-22T06:09:34;101558.17;;;23.06;67.18
51617;BME280;37697;52.588;13.394;2023-06-22T06:14:59;101555.36;;;23.29;67.19
51617;BME280;37697;52.588;13.394;2023-06-22T06:20:26;101558.39;;;23.40;66.77
51617;BME280;37697;52.588;13.394;2023-06-22T06:25:55;101548.95;;;23.55;66.38
51617;BME280;37697;52.588;13.394;2023-06-22T06:31:21;101544.35;;;23.57;65.73
51617;BME280;37697;52.588;13.394;2023-06-22T06:36:47;101542.20;;;23.67;65.36
51617;BME280;37697;52.588;13.394;2023-06-22T06:42:13;101557.49;;;23.78;64.59
51617;BME280;37697;52.588;13.394;2023-06-22T06:47:31;101555.27;;;23.83;64.54
51617;BME280;37697;52.588;13.394;2023-06-22T06:52:58;101555.19;;;23.97;64.00
51617;BME280;37697;52.588;13.394;2023-06-22T06:58:24;101553.30;;;23.95;62.97
51617;BME280;37697;52.588;13.394;2023-06-22T07:03:51;101548.33;;;23.91;62.26
51617;BME280;37697;52.588;13.394;2023-06-22T07:09:17;101535.90;;;24.01;61.84
51617;BME280;37697;52.588;13.394;2023-06-22T07:14:43;101533.71;;;24.15;61.46
51617;BME280;37697;52.588;13.394;2023-06-22T07:20:10;101529.73;;;24.33;60.35
51617;BME280;37697;52.588;13.394;2023-06-22T07:25:38;101522.23;;;24.32;59.76
51617;BME280;37697;52.588;13.394;2023-06-22T07:31:04;101513.25;;;24.33;59.58
51617;BME280;37697;52.588;13.394;2023-06-22T07:36:29;101510.38;;;24.35;59.23
51617;BME280;37697;52.588;13.394;2023-06-22T07:41:48;101508.59;;;24.45;58.76
51617;BME280;37697;52.588;13.394;2023-06-22T07:47:14;101513.21;;;24.57;58.17
51617;BME280;37697;52.588;13.394;2023-06-22T07:52:40;101511.12;;;24.75;57.44
51617;BME280;37697;52.588;13.394;2023-06-22T07:58:06;101507.27;;;24.96;56.79
51617;BME280;37697;52.588;13.394;2023-06-22T08:03:27;101498.29;;;25.12;55.60
51617;BME280;37697;52.588;13.394;2023-06-22T08:08:53;101496.98;;;25.18;55.30
51617;BME280;37697;52.588;13.394;2023-06-22T08:14:13;101497.98;;;25.42;55.68
51617;BME280;37697;52.588;13.394;2023-06-22T08:19:39;101495.21;;;25.73;55.00
51617;BME280;37697;52.588;13.394;2023-06-22T08:25:07;101496.61;;;25.78;54.11
51617;BME280;37697;52.588;13.394;2023-06-22T08:30:34;101503.52;;;25.74;53.47
51617;BME280;37697;52.588;13.394;2023-06-22T08:36:00;101508.36;;;25.66;53.13
51617;BME280;37697;52.588;13.394;2023-06-22T08:41:26;101506.64;;;25.55;52.65
51617;BME280;37697;52.588;13.394;2023-06-22T08:46:51;101502.80;;;25.49;52.53
51617;BME280;37697;52.588;13.394;2023-06-22T08:52:19;101500.67;;;25.45;52.04
51617;BME280;37697;52.588;13.394;2023-06-22T08:57:45;101494.58;;;25.40;51.94
51617;BME280;37697;52.588;13.394;2023-06-22T09:03:11;101497.88;;;25.40;51.93
51617;BME280;37697;52.588;13.394;2023-06-22T09:08:38;101494.59;;;25.41;51.65
51617;BME280;37697;52.588;13.394;2023-06-22T09:14:04;101494.91;;;25.49;51.85
51617;BME280;37697;52.588;13.394;2023-06-22T09:19:29;101485.10;;;25.78;51.78
51617;BME280;37697;52.588;13.394;2023-06-22T09:24:55;101486.88;;;26.08;51.70
51617;BME280;37697;52.588;13.394;2023-06-22T09:30:21;101488.57;;;26.31;50.87
51617;BME280;37697;52.588;13.394;2023-06-22T09:35:47;101481.97;;;26.47;49.90
51617;BME280;37697;52.588;13.394;2023-06-22T09:41:13;101472.48;;;26.68;49.91
51617;BME280;37697;52.588;13.394;2023-06-22T09:46:39;101466.70;;;26.98;49.81
51617;BME280;37697;52.588;13.394;2023-06-22T09:52:06;101455.42;;;27.32;49.19
51617;BME280;37697;52.588;13.394;2023-06-22T09:57:51;101459.89;;;27.66;49.05
51617;BME280;37697;52.588;13.394;2023-06-22T10:03:17;101464.66;;;27.96;48.45
51617;BME280;37697;52.588;13.394;2023-06-22T10:08:43;101461.70;;;28.22;47.90
51617;BME280;37697;52.588;13.394;2023-06-22T10:14:09;101467.48;;;28.43;47.65
51617;BME280;37697;52.588;13.394;2023-06-22T10:19:35;101464.10;;;28.64;47.24
51617;BME280;37697;52.588;13.394;2023-06-22T10:25:10;101462.45;;;28.72;46.36
51617;BME280;37697;52.588;13.394;2023-06-22T10:30:37;101459.39;;;28.69;45.52
51617;BME280;37697;52.588;13.394;2023-06-22T10:36:03;101457.07;;;28.64;45.24
51617;BME280;37697;52.588;13.394;2023-06-22T10:41:29;101448.83;;;28.56;44.84
51617;BME280;37697;52.588;13.394;2023-06-22T10:46:55;101440.95;;;28.39;45.00
51617;BME280;37697;52.588;13.394;2023-06-22T10:52:21;101435.27;;;28.42;45.19
51617;BME280;37697;52.588;13.394;2023-06-22T10:57:40;101428.52;;;28.49;44.79
51617;BME280;37697;52.588;13.394;2023-06-22T11:03:05;101428.02;;;28.60;44.49
51617;BME280;37697;52.588;13.394;2023-06-22T11:08:31;101420.21;;;28.46;43.85
51617;BME280;37697;52.588;13.394;2023-06-22T11:14:11;101417.48;;;28.66;43.96
51617;BME280;37697;52.588;13.394;2023-06-22T11:19:36;101412.65;;;28.77;43.57
51617;BME280;37697;52.588;13.394;2023-06-22T11:25:02;101413.29;;;28.78;43.59
51617;BME280;37697;52.588;13.394;2023-06-22T11:30:28;101409.16;;;28.78;43.20
51617;BME280;37697;52.588;13.394;2023-06-22T11:35:54;101398.45;;;29.07;43.40
51617;BME280;37697;52.588;13.394;2023-06-22T11:41:20;101397.11;;;29.30;42.62
51617;BME280;37697;52.588;13.394;2023-06-22T11:46:45;101407.30;;;29.39;42.31
51617;BME280;37697;52.588;13.394;2023-06-22T11:52:11;101410.39;;;29.58;41.69
51617;BME280;37697;52.588;13.394;2023-06-22T11:57:39;101408.31;;;29.53;41.75
51617;BME280;37697;52.588;13.394;2023-06-22T12:03:11;101410.39;;;29.28;41.91
51617;BME280;37697;52.588;13.394;2023-06-22T12:08:38;101401.53;;;29.32;41.84
51617;BME280;37697;52.588;13.394;2023-06-22T12:14:05;101395.30;;;29.20;41.62
51617;BME280;37697;52.588;13.394;2023-06-22T12:19:31;101387.98;;;29.34;41.49
51617;BME280;37697;52.588;13.394;2023-06-22T12:24:56;101380.90;;;29.47;41.90
51617;BME280;37697;52.588;13.394;2023-06-22T12:30:22;101363.75;;;29.70;41.55
51617;BME280;37697;52.588;13.394;2023-06-22T12:35:48;101354.48;;;29.90;41.26
51617;BME280;37697;52.588;13.394;2023-06-22T12:41:14;101349.32;;;30.08;40.94
51617;BME280;37697;52.588;13.394;2023-06-22T12:46:24;101342.29;;;30.20;40.74
51617;BME280;37697;52.588;13.394;2023-06-22T12:51:50;101347.27;;;30.21;40.09
51617;BME280;37697;52.588;13.394;2023-06-22T12:57:16;101341.60;;;30.09;40.26
51617;BME280;37697;52.588;13.394;2023-06-22T13:02:42;101317.15;;;30.05;41.03
51617;BME280;37697;52.588;13.394;2023-06-22T13:08:08;101320.02;;;30.22;40.57
51617;BME280;37697;52.588;13.394;2023-06-22T13:13:40;101317.41;;;30.16;40.63
51617;BME280;37697;52.588;13.394;2023-06-22T13:19:08;101314.88;;;30.30;40.36
51617;BME280;37697;52.588;13.394;2023-06-22T13:24:34;101304.71;;;30.26;40.43
51617;BME280;37697;52.588;13.394;2023-06-22T13:30:00;101301.94;;;30.21;40.44
51617;BME280;37697;52.588;13.394;2023-06-22T13:35:26;101287.27;;;30.32;40.66
51617;BME280;37697;52.588;13.394;2023-06-22T13:40:52;101287.13;;;30.24;40.39
51617;BME280;37697;52.588;13.394;2023-06-22T13:46:19;101282.98;;;30.25;40.64
51617;BME280;37697;52.588;13.394;2023-06-22T13:51:45;101269.85;;;30.29;40.14
51617;BME280;37697;52.588;13.394;2023-06-22T13:57:11;101266.63;;;30.27;39.92
51617;BME280;37697;52.588;13.394;2023-06-22T14:02:31;101267.27;;;30.28;40.14
51617;BME280;37697;52.588;13.394;2023-06-22T14:07:57;101247.13;;;30.24;39.84
51617;BME280;37697;52.588;13.394;2023-06-22T14:13:43;101233.14;;;30.14;39.99
51617;BME280;37697;52.588;13.394;2023-06-22T14:19:09;101227.31;;;30.02;39.98
51617;BME280;37697;52.588;13.394;2023-06-22T14:24:34;101216.72;;;29.87;39.87
51617;BME280;37697;52.588;13.394;2023-06-22T14:30:00;101212.71;;;29.77;40.68
51617;BME280;37697;52.588;13.394;2023-06-22T14:35:26;101205.14;;;29.71;40.58
51617;BME280;37697;52.588;13.394;2023-06-22T14:40:52;101200.88;;;29.61;40.78
51617;BME280;37697;52.588;13.394;2023-06-22T14:46:20;101198.45;;;29.47;40.60
51617;BME280;37697;52.588;13.394;2023-06-22T14:51:46;101186.40;;;29.46;40.91
51617;BME280;37697;52.588;13.394;2023-06-22T14:57:12;101178.80;;;29.38;40.64
51617;BME280;37697;52.588;13.394;2023-06-22T15:02:39;101160.23;;;29.24;40.67
51617;BME280;37697;52.588;13.394;2023-06-22T15:08:06;101146.04;;;29.19;40.89
51617;BME280;37697;52.588;13.394;2023-06-22T15:13:32;101142.38;;;29.12;41.16
51617;BME280;37697;52.588;13.394;2023-06-22T15:18:59;101127.24;;;29.01;41.35
51617;BME280;37697;52.588;13.394;2023-06-22T15:24:24;101132.56;;;29.03;41.67
51617;BME280;37697;52.588;13.394;2023-06-22T15:29:51;101139.15;;;29.02;41.90
51617;BME280;37697;52.588;13.394;2023-06-22T15:35:16;101137.34;;;28.96;41.67
51617;BME280;37697;52.588;13.394;2023-06-22T15:40:43;101118.71;;;28.90;41.60
51617;BME280;37697;52.588;13.394;2023-06-22T15:46:09;101108.52;;;28.81;41.68
51617;BME280;37697;52.588;13.394;2023-06-22T15:51:34;101109.15;;;28.66;41.76
51617;BME280;37697;52.588;13.394;2023-06-22T15:57:00;101101.75;;;28.51;41.83
51617;BME280;37697;52.588;13.394;2023-06-22T16:02:26;101096.90;;;28.40;42.37
51617;BME280;37697;52.588;13.394;2023-06-22T16:07:54;101094.27;;;28.35;42.57
51617;BME280;37697;52.588;13.394;2023-06-22T16:13:21;101095.02;;;28.25;42.60
51617;BME280;37697;52.588;13.394;2023-06-22T16:18:46;101082.32;;;28.24;42.67
51617;BME280;37697;52.588;13.394;2023-06-22T16:24:12;101068.27;;;28.30;42.86
51617;BME280;37697;52.588;13.394;2023-06-22T16:29:38;101059.32;;;28.27;42.55
51617;BME280;37697;52.588;13.394;2023-06-22T16:35:05;101046.85;;;28.18;42.75
51617;BME280;37697;52.588;13.394;2023-06-22T16:40:32;101021.35;;;28.12;42.81
51617;BME280;37697;52.588;13.394;2023-06-22T16:45:57;101014.78;;;28.05;42.86
51617;BME280;37697;52.588;13.394;2023-06-22T16:57:10;101013.64;;;27.71;43.27
51617;BME280;37697;52.588;13.394;2023-06-22T17:02:47;101002.39;;;27.50;43.49
51617;BME280;37697;52.588;13.394;2023-06-22T17:08:18;101001.41;;;27.37;43.79
51617;BME280;37697;52.588;13.394;2023-06-22T17:13:43;100988.55;;;27.27;43.76
51617;BME280;37697;52.588;13.394;2023-06-22T17:19:10;100989.31;;;27.18;44.11
51617;BME280;37697;52.588;13.394;2023-06-22T17:24:39;100996.86;;;27.10;44.47
51617;BME280;37697;52.588;13.394;2023-06-22T17:30:08;100997.20;;;27.05;44.74
51617;BME280;37697;52.588;13.394;2023-06-22T17:35:46;100991.66;;;26.96;44.57
51617;BME280;37697;52.588;13.394;2023-06-22T17:41:12;100981.79;;;26.85;44.74
51617;BME280;37697;52.588;13.394;2023-06-22T17:46:39;100983.98;;;26.79;44.99
51617;BME280;37697;52.588;13.394;2023-06-22T17:52:07;100972.55;;;26.74;45.16
51617;BME280;37697;52.588;13.394;2023-06-22T17:57:42;100947.31;;;26.66;45.36
51617;BME280;37697;52.588;13.394;2023-06-22T18:03:08;100931.59;;;26.56;45.42
51617;BME280;37697;52.588;13.394;2023-06-22T18:08:28;100935.19;;;26.44;45.63
51617;BME280;37697;52.588;13.394;2023-06-22T18:13:55;100934.48;;;26.33;45.86
51617;BME280;37697;52.588;13.394;2023-06-22T18:19:22;100928.55;;;26.24;45.94
51617;BME280;37697;52.588;13.394;2023-06-22T18:24:51;100921.30;;;26.12;46.31
51617;BME280;37697;52.588;13.394;2023-06-22T18:30:18;100905.68;;;25.96;46.46
51617;BME280;37697;52.588;13.394;2023-06-22T18:35:44;100894.96;;;25.86;46.56
51617;BME280;37697;52.588;13.394;2023-06-22T18:41:21;100901.10;;;25.74;46.78
51617;BME280;37697;52.588;13.394;2023-06-22T18:46:51;100898.30;;;25.64;46.90
51617;BME280;37697;52.588;13.394;2023-06-22T18:52:25;100886.05;;;25.53;47.22
51617;BME280;37697;52.588;13.394;2023-06-22T18:58:13;100887.33;;;25.43;47.54
51617;BME280;37697;52.588;13.394;2023-06-22T19:03:32;100883.38;;;25.31;47.95
51617;BME280;37697;52.588;13.394;2023-06-22T19:09:14;100864.81;;;25.19;48.17
51617;BME280;37697;52.588;13.394;2023-06-22T19:14:40;100856.43;;;25.08;48.50
51617;BME280;37697;52.588;13.394;2023-06-22T19:20:07;100866.87;;;24.97;48.60
51617;BME280;37697;52.588;13.394;2023-06-22T19:25:36;100873.61;;;24.87;48.77
51617;BME280;37697;52.588;13.394;2023-06-22T19:31:03;100867.08;;;24.77;48.95
51617;BME280;37697;52.588;13.394;2023-06-22T19:36:26;100873.81;;;24.71;49.00
51617;BME280;37697;52.588;13.394;2023-06-22T19:41:56;100867.92;;;24.66;49.03
51617;BME280;37697;52.588;13.394;2023-06-22T19:47:22;100863.73;;;24.60;49.16
51617;BME280;37697;52.588;13.394;2023-06-22T19:52:39;100864.89;;;24.53;49.26
51617;BME280;37697;52.588;13.394;2023-06-22T20:03:45;100830.96;;;24.39;49.19
51617;BME280;37697;52.588;13.394;2023-06-22T20:09:14;100805.70;;;24.35;49.17
51617;BME280;37697;52.588;13.394;2023-06-22T20:14:43;100783.97;;;24.28;49.36
51617;BME280;37697;52.588;13.394;2023-06-22T20:20:20;100787.70;;;24.18;49.73
51617;BME280;37697;52.588;13.394;2023-06-22T20:25:46;100812.25;;;24.08;49.73
51617;BME280;37697;52.588;13.394;2023-06-22T20:31:12;100844.14;;;24.04;49.82
51617;BME280;37697;52.588;13.394;2023-06-22T20:36:38;100878.98;;;23.98;49.83
51617;BME280;37697;52.588;13.394;2023-06-22T20:42:08;100950.88;;;23.95;49.85
51617;BME280;37697;52.588;13.394;2023-06-22T20:47:34;101114.36;;;23.79;52.80
51617;BME280;37697;52.588;13.394;2023-06-22T20:53:03;101141.27;;;22.99;57.67
51617;BME280;37697;52.588;13.394;2023-06-22T20:58:29;100903.50;;;22.10;60.46
51617;BME280;37697;52.588;13.394;2023-06-22T21:03:54;100983.44;;;21.49;61.97
51617;BME280;37697;52.588;13.394;2023-06-22T21:09:20;101017.78;;;21.21;63.77
51617;BME280;37697;52.588;13.394;2023-06-22T21:14:56;101015.59;;;21.00;65.53
51617;BME280;37697;52.588;13.394;2023-06-22T21:20:22;100967.20;;;20.88;66.84
51617;BME280;37697;52.588;13.394;2023-06-22T21:25:48;100956.13;;;20.86;68.18
51617;BME280;37697;52.588;13.394;2023-06-22T21:31:14;100962.94;;;20.87;69.25
51617;BME280;37697;52.588;13.394;2023-06-22T21:36:40;100998.91;;;20.82;70.00
51617;BME280;37697;52.588;13.394;2023-06-22T21:42:06;101038.15;;;20.78;70.56
51617;BME280;37697;52.588;13.394;2023-06-22T21:47:32;101127.40;;;20.65;70.88
51617;BME280;37697;52.588;13.394;2023-06-22T21:52:58;101231.35;;;20.54;71.68
51617;BME280;37697;52.588;13.394;2023-06-22T21:58:24;101231.05;;;20.43;72.45
51617;BME280;37697;52.588;13.394;2023-06-22T22:03:50;101179.27;;;20.28;72.78
51617;BME280;37697;52.588;13.394;2023-06-22T22:09:16;101131.79;;;20.21;73.54
51617;BME280;37697;52.588;13.394;2023-06-22T22:14:41;101104.13;;;20.14;74.31
51617;BME280;37697;52.588;13.394;2023-06-22T22:20:12;101071.92;;;20.04;74.61
51617;BME280;37697;52.588;13.394;2023-06-22T22:25:38;101048.70;;;19.95;75.33
51617;BME280;37697;52.588;13.394;2023-06-22T22:31:04;101019.84;;;19.81;75.71
51617;BME280;37697;52.588;13.394;2023-06-22T22:36:30;100959.11;;;19.61;76.50
51617;BME280;37697;52.588;13.394;2023-06-22T22:41:55;100930.35;;;19.38;77.33
51617;BME280;37697;52.588;13.394;2023-06-22T22:47:13;100914.78;;;19.16;78.94
51617;BME280;37697;52.588;13.394;2023-06-22T22:52:40;100890.04;;;18.98;79.20
51617;BME280;37697;52.588;13.394;2023-06-22T22:58:06;100881.31;;;18.80;79.49
51617;BME280;37697;52.588;13.394;2023-06-22T23:03:32;100880.17;;;18.68;79.78
51617;BME280;37697;52.588;13.394;2023-06-22T23:08:58;100880.10;;;18.62;80.03
51617;BME280;37697;52.588;13.394;2023-06-22T23:14:24;100859.92;;;18.51;80.23
51617;BME280;37697;52.588;13.394;2023-06-22T23:19:50;100839.72;;;18.40;80.50
51617;BME280;37697;52.588;13.394;2023-06-22T23:25:16;100823.42;;;18.31;80.95
51617;BME280;37697;52.588;13.394;2023-06-22T23:30:44;100814.77;;;18.23;81.38
51617;BME280;37697;52.588;13.394;2023-06-22T23:36:09;100792.07;;;18.15;81.80
51617;BME280;37697;52.588;13.394;2023-06-22T23:41:35;100757.60;;;18.06;82.46
51617;BME280;37697;52.588;13.394;2023-06-22T23:46:54;100774.06;;;17.92;82.64
51617;BME280;37697;52.588;13.394;2023-06-22T23:52:20;100824.80;;;17.86;83.09
51617;BME280;37697;52.588;13.394;2023-06-22T23:57:46;100829.87;;;17.86;83.10
